sensor_id;sensor_type;location;lat;lon;timestamp;P1;durP1;ratioP1;P2;durP2;ratioP2
20970;SDS011;10644;48.834;10.088;2022-10-15T00:05:00;1.00;;;0.70;;
20970;SDS011;10644;48.834;10.088;2022-10-15T00:07:27;1.27;;;0.80;;
20970;SDS011;10644;48.834;10.088;2022-10-15T00:16:19;2.50;;;0.87;;
20970;SDS011;10644;48.834;10.088;2022-10-15T00:21:47;1.10;;;0.70;;
20970;SDS011;10644;48.834;10.088;2022-10-15T00:27:08;1.53;;;0.70;;
20970;SDS011;10644;48.834;10.088;2022-10-15T00:29:44;1.63;;;0.90;;
20970;SDS011;10644;48.834;10.088;2022-10-15T00:34:47;1.43;;;0.60;;
20970;SDS011;10644;48.834;10.088;2022-10-15T00:42:46;2.23;;;0.80;;
20970;SDS011;10644;48.834;10.088;2022-10-15T00:45:18;6.67;;;0.93;;
20970;SDS011;10644;48.834;10.088;2022-10-15T00:47:54;2.07;;;0.73;;
20970;SDS011;10644;48.834;10.088;2022-10-15T00:50:22;1.10;;;0.50;;
20970;SDS011;10644;48.834;10.088;2022-10-15T00:55:44;1.20;;;0.80;;
20970;SDS011;10644;48.834;10.088;2022-10-15T00:58:21;1.63;;;0.70;;
20970;SDS011;10644;48.834;10.088;2022-10-15T01:00:54;0.90;;;0.60;;
20970;SDS011;10644;48.834;10.088;2022-10-15T01:09:46;1.30;;;0.60;;
20970;SDS011;10644;48.834;10.088;2022-10-15T01:18:02;0.93;;;0.50;;
20970;SDS011;10644;48.834;10.088;2022-10-15T01:23:44;0.90;;;0.50;;
20970;SDS011;10644;48.834;10.088;2022-10-15T01:29:30;2.43;;;0.50;;
20970;SDS011;10644;48.834;10.088;2022-10-15T01:44:56;1.50;;;0.50;;
20970;SDS011;10644;48.834;10.088;2022-10-15T01:50:22;0.90;;;0.50;;
20970;SDS011;10644;48.834;10.088;2022-10-15T01:52:49;3.03;;;1.00;;
20970;SDS011;10644;48.834;10.088;2022-10-15T01:55:28;1.57;;;0.50;;
20970;SDS011;10644;48.834;10.088;2022-10-15T01:58:10;1.67;;;0.80;;
20970;SDS011;10644;48.834;10.088;2022-10-15T02:00:43;2.10;;;0.73;;
20970;SDS011;10644;48.834;10.088;2022-10-15T02:03:27;3.97;;;1.00;;
20970;SDS011;10644;48.834;10.088;2022-10-15T02:08:44;2.13;;;0.70;;
20970;SDS011;10644;48.834;10.088;2022-10-15T02:11:14;1.73;;;0.50;;
20970;SDS011;10644;48.834;10.088;2022-10-15T02:13:52;1.10;;;0.60;;
20970;SDS011;10644;48.834;10.088;2022-10-15T02:20:10;1.63;;;0.80;;
20970;SDS011;10644;48.834;10.088;2022-10-15T02:26:10;1.77;;;0.60;;
20970;SDS011;10644;48.834;10.088;2022-10-15T02:28:49;1.43;;;0.90;;
20970;SDS011;10644;48.834;10.088;2022-10-15T02:31:19;1.60;;;0.60;;
20970;SDS011;10644;48.834;10.088;2022-10-15T02:33:52;3.87;;;1.03;;
20970;SDS011;10644;48.834;10.088;2022-10-15T02:36:23;1.10;;;0.70;;
20970;SDS011;10644;48.834;10.088;2022-10-15T02:39:00;2.70;;;0.80;;
20970;SDS011;10644;48.834;10.088;2022-10-15T02:41:28;1.37;;;0.60;;
20970;SDS011;10644;48.834;10.088;2022-10-15T02:50:10;1.20;;;1.00;;
20970;SDS011;10644;48.834;10.088;2022-10-15T02:55:38;1.00;;;0.70;;
20970;SDS011;10644;48.834;10.088;2022-10-15T02:58:10;1.87;;;0.87;;
20970;SDS011;10644;48.834;10.088;2022-10-15T03:00:46;1.27;;;0.90;;
20970;SDS011;10644;48.834;10.088;2022-10-15T03:03:28;1.83;;;0.70;;
20970;SDS011;10644;48.834;10.088;2022-10-15T03:05:59;2.07;;;0.60;;
20970;SDS011;10644;48.834;10.088;2022-10-15T03:08:31;1.20;;;0.50;;
20970;SDS011;10644;48.834;10.088;2022-10-15T03:13:40;1.50;;;0.70;;
20970;SDS011;10644;48.834;10.088;2022-10-15T03:16:24;1.90;;;0.70;;
20970;SDS011;10644;48.834;10.088;2022-10-15T03:18:52;2.40;;;0.80;;
20970;SDS011;10644;48.834;10.088;2022-10-15T03:24:10;1.23;;;0.50;;
20970;SDS011;10644;48.834;10.088;2022-10-15T03:26:49;1.17;;;0.60;;
20970;SDS011;10644;48.834;10.088;2022-10-15T03:29:25;0.80;;;0.43;;
20970;SDS011;10644;48.834;10.088;2022-10-15T03:32:00;2.17;;;0.97;;
20970;SDS011;10644;48.834;10.088;2022-10-15T03:34:32;1.70;;;0.50;;
20970;SDS011;10644;48.834;10.088;2022-10-15T03:37:13;2.63;;;0.60;;
20970;SDS011;10644;48.834;10.088;2022-10-15T03:46:01;1.20;;;0.60;;
20970;SDS011;10644;48.834;10.088;2022-10-15T03:54:44;0.90;;;0.50;;
20970;SDS011;10644;48.834;10.088;2022-10-15T03:57:09;0.80;;;0.47;;
20970;SDS011;10644;48.834;10.088;2022-10-15T04:02:41;0.90;;;0.60;;
20970;SDS011;10644;48.834;10.088;2022-10-15T04:05:25;1.53;;;0.53;;
20970;SDS011;10644;48.834;10.088;2022-10-15T04:07:51;5.83;;;1.10;;
20970;SDS011;10644;48.834;10.088;2022-10-15T04:13:40;1.10;;;0.70;;
20970;SDS011;10644;48.834;10.088;2022-10-15T04:31:17;1.07;;;0.80;;
20970;SDS011;10644;48.834;10.088;2022-10-15T04:33:42;3.10;;;0.70;;
20970;SDS011;10644;48.834;10.088;2022-10-15T04:36:11;1.00;;;0.70;;
20970;SDS011;10644;48.834;10.088;2022-10-15T04:41:19;1.93;;;0.90;;
20970;SDS011;10644;48.834;10.088;2022-10-15T04:43:54;0.90;;;0.60;;
20970;SDS011;10644;48.834;10.088;2022-10-15T04:46:19;0.90;;;0.60;;
20970;SDS011;10644;48.834;10.088;2022-10-15T04:51:21;1.10;;;0.60;;
20970;SDS011;10644;48.834;10.088;2022-10-15T04:54:04;3.50;;;0.93;;
20970;SDS011;10644;48.834;10.088;2022-10-15T04:56:30;1.27;;;0.60;;
20970;SDS011;10644;48.834;10.088;2022-10-15T05:01:52;4.70;;;1.00;;
20970;SDS011;10644;48.834;10.088;2022-10-15T05:04:21;0.93;;;0.73;;
20970;SDS011;10644;48.834;10.088;2022-10-15T05:06:47;3.23;;;1.37;;
20970;SDS011;10644;48.834;10.088;2022-10-15T05:09:12;1.00;;;0.67;;
20970;SDS011;10644;48.834;10.088;2022-10-15T05:11:44;1.40;;;0.80;;
20970;SDS011;10644;48.834;10.088;2022-10-15T05:14:09;8.33;;;1.20;;
20970;SDS011;10644;48.834;10.088;2022-10-15T05:19:44;0.90;;;0.60;;
20970;SDS011;10644;48.834;10.088;2022-10-15T05:22:09;1.00;;;0.70;;
20970;SDS011;10644;48.834;10.088;2022-10-15T05:24:40;1.13;;;0.60;;
20970;SDS011;10644;48.834;10.088;2022-10-15T05:27:18;1.10;;;0.80;;
20970;SDS011;10644;48.834;10.088;2022-10-15T05:29:54;2.80;;;0.93;;
20970;SDS011;10644;48.834;10.088;2022-10-15T05:32:19;1.33;;;0.53;;
20970;SDS011;10644;48.834;10.088;2022-10-15T05:35:03;1.50;;;0.70;;
20970;SDS011;10644;48.834;10.088;2022-10-15T05:37:34;2.30;;;0.93;;
20970;SDS011;10644;48.834;10.088;2022-10-15T05:40:02;1.73;;;0.73;;
20970;SDS011;10644;48.834;10.088;2022-10-15T05:45:01;2.53;;;0.53;;
20970;SDS011;10644;48.834;10.088;2022-10-15T05:47:32;2.70;;;0.60;;
20970;SDS011;10644;48.834;10.088;2022-10-15T05:49:58;2.70;;;0.50;;
20970;SDS011;10644;48.834;10.088;2022-10-15T05:54:58;0.80;;;0.50;;
20970;SDS011;10644;48.834;10.088;2022-10-15T05:57:23;11.33;;;1.63;;
20970;SDS011;10644;48.834;10.088;2022-10-15T06:00:01;10.40;;;1.00;;
20970;SDS011;10644;48.834;10.088;2022-10-15T06:02:30;1.10;;;0.80;;
20970;SDS011;10644;48.834;10.088;2022-10-15T06:05:00;2.70;;;0.50;;
20970;SDS011;10644;48.834;10.088;2022-10-15T06:07:25;1.67;;;0.67;;
20970;SDS011;10644;48.834;10.088;2022-10-15T06:09:59;3.53;;;0.80;;
20970;SDS011;10644;48.834;10.088;2022-10-15T06:12:25;3.90;;;1.03;;
20970;SDS011;10644;48.834;10.088;2022-10-15T06:14:51;1.00;;;0.70;;
20970;SDS011;10644;48.834;10.088;2022-10-15T06:17:23;5.53;;;1.20;;
20970;SDS011;10644;48.834;10.088;2022-10-15T06:19:56;1.87;;;0.83;;
20970;SDS011;10644;48.834;10.088;2022-10-15T06:22:35;1.60;;;0.80;;
20970;SDS011;10644;48.834;10.088;2022-10-15T06:25:03;1.23;;;0.93;;
20970;SDS011;10644;48.834;10.088;2022-10-15T06:27:29;1.87;;;0.83;;
20970;SDS011;10644;48.834;10.088;2022-10-15T06:30:05;2.13;;;1.00;;
20970;SDS011;10644;48.834;10.088;2022-10-15T06:32:31;6.83;;;1.53;;
20970;SDS011;10644;48.834;10.088;2022-10-15T06:35:02;3.93;;;0.90;;
20970;SDS011;10644;48.834;10.088;2022-10-15T06:40:02;1.63;;;0.80;;
20970;SDS011;10644;48.834;10.088;2022-10-15T06:42:28;2.03;;;0.77;;
20970;SDS011;10644;48.834;10.088;2022-10-15T06:45:03;1.27;;;0.70;;
20970;SDS011;10644;48.834;10.088;2022-10-15T06:47:43;1.77;;;0.67;;
20970;SDS011;10644;48.834;10.088;2022-10-15T06:50:16;8.83;;;1.37;;
20970;SDS011;10644;48.834;10.088;2022-10-15T06:52:48;12.03;;;1.77;;
20970;SDS011;10644;48.834;10.088;2022-10-15T06:55:13;6.00;;;1.17;;
20970;SDS011;10644;48.834;10.088;2022-10-15T06:57:39;9.93;;;1.83;;
20970;SDS011;10644;48.834;10.088;2022-10-15T07:00:11;2.60;;;1.13;;
20970;SDS011;10644;48.834;10.088;2022-10-15T07:02:39;1.60;;;1.00;;
20970;SDS011;10644;48.834;10.088;2022-10-15T07:05:04;5.50;;;1.37;;
20970;SDS011;10644;48.834;10.088;2022-10-15T07:07:30;2.50;;;1.10;;
20970;SDS011;10644;48.834;10.088;2022-10-15T07:10:04;6.90;;;1.83;;
20970;SDS011;10644;48.834;10.088;2022-10-15T07:12:34;3.70;;;1.13;;
20970;SDS011;10644;48.834;10.088;2022-10-15T07:15:03;1.27;;;0.80;;
20970;SDS011;10644;48.834;10.088;2022-10-15T07:20:32;5.80;;;1.40;;
20970;SDS011;10644;48.834;10.088;2022-10-15T07:23:11;3.80;;;1.40;;
20970;SDS011;10644;48.834;10.088;2022-10-15T07:25:37;7.57;;;1.80;;
20970;SDS011;10644;48.834;10.088;2022-10-15T07:28:03;4.70;;;1.23;;
20970;SDS011;10644;48.834;10.088;2022-10-15T07:30:40;3.27;;;1.03;;
20970;SDS011;10644;48.834;10.088;2022-10-15T07:33:07;5.80;;;1.17;;
20970;SDS011;10644;48.834;10.088;2022-10-15T07:35:37;8.50;;;1.67;;
20970;SDS011;10644;48.834;10.088;2022-10-15T07:38:04;1.63;;;0.90;;
20970;SDS011;10644;48.834;10.088;2022-10-15T07:40:29;2.83;;;1.17;;
20970;SDS011;10644;48.834;10.088;2022-10-15T07:42:59;4.87;;;1.60;;
20970;SDS011;10644;48.834;10.088;2022-10-15T07:45:24;2.70;;;1.20;;
20970;SDS011;10644;48.834;10.088;2022-10-15T07:47:51;3.43;;;0.90;;
20970;SDS011;10644;48.834;10.088;2022-10-15T07:50:32;3.67;;;1.00;;
20970;SDS011;10644;48.834;10.088;2022-10-15T07:53:07;7.93;;;1.40;;
20970;SDS011;10644;48.834;10.088;2022-10-15T07:55:44;1.30;;;0.70;;
20970;SDS011;10644;48.834;10.088;2022-10-15T07:58:10;3.90;;;1.00;;
20970;SDS011;10644;48.834;10.088;2022-10-15T08:00:36;30.90;;;3.93;;
20970;SDS011;10644;48.834;10.088;2022-10-15T08:03:10;8.30;;;1.73;;
20970;SDS011;10644;48.834;10.088;2022-10-15T08:05:40;4.77;;;1.10;;
20970;SDS011;10644;48.834;10.088;2022-10-15T08:08:05;1.30;;;0.67;;
20970;SDS011;10644;48.834;10.088;2022-10-15T08:10:31;2.30;;;1.10;;
20970;SDS011;10644;48.834;10.088;2022-10-15T08:12:57;3.73;;;0.90;;
20970;SDS011;10644;48.834;10.088;2022-10-15T08:20:33;1.83;;;0.90;;
20970;SDS011;10644;48.834;10.088;2022-10-15T08:23:18;1.73;;;0.80;;
20970;SDS011;10644;48.834;10.088;2022-10-15T08:25:43;5.23;;;1.43;;
20970;SDS011;10644;48.834;10.088;2022-10-15T08:28:09;7.10;;;1.30;;
20970;SDS011;10644;48.834;10.088;2022-10-15T08:30:36;8.73;;;1.17;;
20970;SDS011;10644;48.834;10.088;2022-10-15T08:33:02;2.87;;;1.27;;
20970;SDS011;10644;48.834;10.088;2022-10-15T08:35:28;4.73;;;1.50;;
20970;SDS011;10644;48.834;10.088;2022-10-15T08:37:57;1.77;;;1.00;;
20970;SDS011;10644;48.834;10.088;2022-10-15T08:40:26;2.03;;;0.70;;
20970;SDS011;10644;48.834;10.088;2022-10-15T08:45:25;2.47;;;0.90;;
20970;SDS011;10644;48.834;10.088;2022-10-15T08:47:59;5.53;;;1.17;;
20970;SDS011;10644;48.834;10.088;2022-10-15T08:53:12;2.60;;;0.90;;
20970;SDS011;10644;48.834;10.088;2022-10-15T08:55:52;2.03;;;0.67;;
20970;SDS011;10644;48.834;10.088;2022-10-15T08:58:26;5.47;;;1.30;;
20970;SDS011;10644;48.834;10.088;2022-10-15T09:15:40;3.37;;;0.93;;
20970;SDS011;10644;48.834;10.088;2022-10-15T09:18:19;2.13;;;0.80;;
20970;SDS011;10644;48.834;10.088;2022-10-15T09:20:48;1.20;;;0.80;;
20970;SDS011;10644;48.834;10.088;2022-10-15T09:25:55;2.57;;;1.23;;
20970;SDS011;10644;48.834;10.088;2022-10-15T09:31:21;1.70;;;0.90;;
20970;SDS011;10644;48.834;10.088;2022-10-15T09:33:53;3.27;;;1.13;;
20970;SDS011;10644;48.834;10.088;2022-10-15T09:36:31;4.93;;;1.27;;
20970;SDS011;10644;48.834;10.088;2022-10-15T09:44:24;2.13;;;0.90;;
20970;SDS011;10644;48.834;10.088;2022-10-15T09:46:55;8.47;;;2.17;;
20970;SDS011;10644;48.834;10.088;2022-10-15T09:49:27;3.23;;;1.00;;
20970;SDS011;10644;48.834;10.088;2022-10-15T09:57:33;2.80;;;1.00;;
20970;SDS011;10644;48.834;10.088;2022-10-15T10:00:04;6.63;;;1.67;;
20970;SDS011;10644;48.834;10.088;2022-10-15T10:02:34;2.80;;;1.00;;
20970;SDS011;10644;48.834;10.088;2022-10-15T10:08:20;3.17;;;1.20;;
20970;SDS011;10644;48.834;10.088;2022-10-15T10:10:55;8.73;;;2.07;;
20970;SDS011;10644;48.834;10.088;2022-10-15T10:17:02;17.03;;;2.20;;
20970;SDS011;10644;48.834;10.088;2022-10-15T10:19:28;3.90;;;1.27;;
20970;SDS011;10644;48.834;10.088;2022-10-15T10:21:54;3.70;;;1.17;;
20970;SDS011;10644;48.834;10.088;2022-10-15T10:24:36;4.03;;;1.10;;
20970;SDS011;10644;48.834;10.088;2022-10-15T10:27:11;4.50;;;1.23;;
20970;SDS011;10644;48.834;10.088;2022-10-15T10:30:05;2.27;;;1.00;;
20970;SDS011;10644;48.834;10.088;2022-10-15T10:32:32;3.07;;;1.30;;
20970;SDS011;10644;48.834;10.088;2022-10-15T10:34:59;1.57;;;1.00;;
20970;SDS011;10644;48.834;10.088;2022-10-15T10:37:26;5.80;;;1.67;;
20970;SDS011;10644;48.834;10.088;2022-10-15T10:39:55;6.27;;;1.10;;
20970;SDS011;10644;48.834;10.088;2022-10-15T10:45:16;2.63;;;1.20;;
20970;SDS011;10644;48.834;10.088;2022-10-15T10:47:46;1.63;;;0.90;;
20970;SDS011;10644;48.834;10.088;2022-10-15T10:50:26;2.13;;;1.10;;
20970;SDS011;10644;48.834;10.088;2022-10-15T10:52:54;3.33;;;0.70;;
20970;SDS011;10644;48.834;10.088;2022-10-15T10:55:32;5.60;;;1.50;;
20970;SDS011;10644;48.834;10.088;2022-10-15T10:58:11;5.03;;;0.97;;
20970;SDS011;10644;48.834;10.088;2022-10-15T11:00:46;8.60;;;1.10;;
20970;SDS011;10644;48.834;10.088;2022-10-15T11:15:38;10.30;;;1.90;;
20970;SDS011;10644;48.834;10.088;2022-10-15T11:18:27;5.17;;;1.37;;
20970;SDS011;10644;48.834;10.088;2022-10-15T11:49:03;2.60;;;1.40;;
20970;SDS011;10644;48.834;10.088;2022-10-15T11:57:45;3.83;;;1.50;;
20970;SDS011;10644;48.834;10.088;2022-10-15T12:00:34;4.80;;;1.93;;
20970;SDS011;10644;48.834;10.088;2022-10-15T12:05:58;8.27;;;2.23;;
20970;SDS011;10644;48.834;10.088;2022-10-15T12:08:39;3.53;;;1.30;;
20970;SDS011;10644;48.834;10.088;2022-10-15T12:13:58;6.30;;;1.90;;
20970;SDS011;10644;48.834;10.088;2022-10-15T12:24:00;8.23;;;1.60;;
20970;SDS011;10644;48.834;10.088;2022-10-15T12:26:31;5.67;;;2.00;;
20970;SDS011;10644;48.834;10.088;2022-10-15T12:29:05;2.73;;;1.10;;
20970;SDS011;10644;48.834;10.088;2022-10-15T12:31:43;4.70;;;1.20;;
20970;SDS011;10644;48.834;10.088;2022-10-15T12:39:54;3.10;;;1.57;;
20970;SDS011;10644;48.834;10.088;2022-10-15T12:42:25;5.70;;;1.53;;
20970;SDS011;10644;48.834;10.088;2022-10-15T12:44:59;2.80;;;1.30;;
20970;SDS011;10644;48.834;10.088;2022-10-15T12:55:20;25.57;;;5.47;;
20970;SDS011;10644;48.834;10.088;2022-10-15T13:00:27;3.50;;;1.50;;
20970;SDS011;10644;48.834;10.088;2022-10-15T13:02:56;1.70;;;0.97;;
20970;SDS011;10644;48.834;10.088;2022-10-15T13:05:47;2.60;;;0.87;;
20970;SDS011;10644;48.834;10.088;2022-10-15T13:08:15;2.43;;;1.20;;
20970;SDS011;10644;48.834;10.088;2022-10-15T13:11:11;1.67;;;0.90;;
20970;SDS011;10644;48.834;10.088;2022-10-15T13:20:01;4.60;;;1.63;;
20970;SDS011;10644;48.834;10.088;2022-10-15T13:22:34;3.40;;;1.40;;
20970;SDS011;10644;48.834;10.088;2022-10-15T13:25:13;5.80;;;2.33;;
20970;SDS011;10644;48.834;10.088;2022-10-15T13:27:40;1.67;;;1.00;;
20970;SDS011;10644;48.834;10.088;2022-10-15T13:32:46;1.30;;;0.90;;
20970;SDS011;10644;48.834;10.088;2022-10-15T13:35:18;7.20;;;2.17;;
20970;SDS011;10644;48.834;10.088;2022-10-15T13:37:46;11.73;;;2.33;;
20970;SDS011;10644;48.834;10.088;2022-10-15T13:46:00;2.30;;;1.30;;
20970;SDS011;10644;48.834;10.088;2022-10-15T13:48:39;3.67;;;1.20;;
20970;SDS011;10644;48.834;10.088;2022-10-15T13:51:08;7.30;;;1.97;;
20970;SDS011;10644;48.834;10.088;2022-10-15T13:53:35;1.90;;;1.00;;
20970;SDS011;10644;48.834;10.088;2022-10-15T13:56:16;4.40;;;1.30;;
20970;SDS011;10644;48.834;10.088;2022-10-15T13:58:49;6.00;;;1.93;;
20970;SDS011;10644;48.834;10.088;2022-10-15T14:01:21;1.97;;;1.10;;
20970;SDS011;10644;48.834;10.088;2022-10-15T14:06:29;7.60;;;1.23;;
20970;SDS011;10644;48.834;10.088;2022-10-15T14:09:18;4.93;;;1.37;;
20970;SDS011;10644;48.834;10.088;2022-10-15T14:14:27;3.63;;;1.20;;
20970;SDS011;10644;48.834;10.088;2022-10-15T14:16:57;5.50;;;1.43;;
20970;SDS011;10644;48.834;10.088;2022-10-15T14:19:25;1.50;;;1.00;;
20970;SDS011;10644;48.834;10.088;2022-10-15T14:21:57;3.30;;;1.30;;
20970;SDS011;10644;48.834;10.088;2022-10-15T14:24:27;3.47;;;1.70;;
20970;SDS011;10644;48.834;10.088;2022-10-15T14:27:05;4.30;;;1.40;;
20970;SDS011;10644;48.834;10.088;2022-10-15T14:29:39;6.30;;;1.37;;
20970;SDS011;10644;48.834;10.088;2022-10-15T14:32:20;5.33;;;1.67;;
20970;SDS011;10644;48.834;10.088;2022-10-15T14:34:54;3.17;;;1.17;;
20970;SDS011;10644;48.834;10.088;2022-10-15T14:37:39;1.60;;;1.20;;
20970;SDS011;10644;48.834;10.088;2022-10-15T14:40:13;4.17;;;1.90;;
20970;SDS011;10644;48.834;10.088;2022-10-15T14:45:12;2.10;;;1.00;;
20970;SDS011;10644;48.834;10.088;2022-10-15T14:47:45;2.80;;;1.47;;
20970;SDS011;10644;48.834;10.088;2022-10-15T14:50:32;3.30;;;1.60;;
20970;SDS011;10644;48.834;10.088;2022-10-15T14:52:59;4.63;;;1.50;;
20970;SDS011;10644;48.834;10.088;2022-10-15T14:55:32;2.87;;;1.03;;
20970;SDS011;10644;48.834;10.088;2022-10-15T14:58:08;3.87;;;1.40;;
20970;SDS011;10644;48.834;10.088;2022-10-15T15:00:45;8.33;;;2.17;;
20970;SDS011;10644;48.834;10.088;2022-10-15T15:03:16;2.40;;;1.60;;
20970;SDS011;10644;48.834;10.088;2022-10-15T15:05:51;2.70;;;1.80;;
20970;SDS011;10644;48.834;10.088;2022-10-15T15:08:21;1.93;;;1.40;;
20970;SDS011;10644;48.834;10.088;2022-10-15T15:10:47;5.27;;;1.50;;
20970;SDS011;10644;48.834;10.088;2022-10-15T15:13:21;2.50;;;1.30;;
20970;SDS011;10644;48.834;10.088;2022-10-15T15:15:48;3.67;;;1.40;;
20970;SDS011;10644;48.834;10.088;2022-10-15T15:18:14;3.97;;;1.87;;
20970;SDS011;10644;48.834;10.088;2022-10-15T15:20:40;2.00;;;1.20;;
20970;SDS011;10644;48.834;10.088;2022-10-15T15:23:18;4.00;;;2.00;;
20970;SDS011;10644;48.834;10.088;2022-10-15T15:25:47;1.77;;;1.20;;
20970;SDS011;10644;48.834;10.088;2022-10-15T15:28:16;1.30;;;1.00;;
20970;SDS011;10644;48.834;10.088;2022-10-15T15:31:03;2.87;;;1.47;;
20970;SDS011;10644;48.834;10.088;2022-10-15T15:33:35;2.23;;;1.40;;
20970;SDS011;10644;48.834;10.088;2022-10-15T15:38:27;4.50;;;1.23;;
20970;SDS011;10644;48.834;10.088;2022-10-15T15:41:02;2.53;;;1.07;;
20970;SDS011;10644;48.834;10.088;2022-10-15T15:43:36;4.50;;;1.87;;
20970;SDS011;10644;48.834;10.088;2022-10-15T15:46:01;10.33;;;1.97;;
20970;SDS011;10644;48.834;10.088;2022-10-15T15:48:39;2.10;;;1.30;;
20970;SDS011;10644;48.834;10.088;2022-10-15T15:53:43;5.90;;;1.60;;
20970;SDS011;10644;48.834;10.088;2022-10-15T15:56:08;1.77;;;1.20;;
20970;SDS011;10644;48.834;10.088;2022-10-15T15:58:34;4.07;;;1.90;;
20970;SDS011;10644;48.834;10.088;2022-10-15T16:00:59;9.90;;;2.40;;
20970;SDS011;10644;48.834;10.088;2022-10-15T16:03:24;7.40;;;1.57;;
20970;SDS011;10644;48.834;10.088;2022-10-15T16:05:52;3.33;;;1.97;;
20970;SDS011;10644;48.834;10.088;2022-10-15T16:10:47;6.87;;;1.97;;
20970;SDS011;10644;48.834;10.088;2022-10-15T16:13:20;3.10;;;1.23;;
20970;SDS011;10644;48.834;10.088;2022-10-15T16:15:52;5.37;;;1.70;;
20970;SDS011;10644;48.834;10.088;2022-10-15T16:18:18;3.97;;;1.40;;
20970;SDS011;10644;48.834;10.088;2022-10-15T16:20:44;6.00;;;2.03;;
20970;SDS011;10644;48.834;10.088;2022-10-15T16:23:10;5.87;;;1.77;;
20970;SDS011;10644;48.834;10.088;2022-10-15T16:25:36;12.13;;;2.40;;
20970;SDS011;10644;48.834;10.088;2022-10-15T16:28:02;5.50;;;1.87;;
20970;SDS011;10644;48.834;10.088;2022-10-15T16:30:28;3.57;;;1.73;;
20970;SDS011;10644;48.834;10.088;2022-10-15T16:32:54;4.70;;;1.57;;
20970;SDS011;10644;48.834;10.088;2022-10-15T16:35:20;11.60;;;2.37;;
20970;SDS011;10644;48.834;10.088;2022-10-15T16:37:45;6.43;;;2.20;;
20970;SDS011;10644;48.834;10.088;2022-10-15T16:40:11;4.30;;;1.90;;
20970;SDS011;10644;48.834;10.088;2022-10-15T16:45:20;3.30;;;1.20;;
20970;SDS011;10644;48.834;10.088;2022-10-15T16:47:49;3.77;;;1.63;;
20970;SDS011;10644;48.834;10.088;2022-10-15T16:50:15;3.87;;;1.30;;
20970;SDS011;10644;48.834;10.088;2022-10-15T16:52:55;4.10;;;1.80;;
20970;SDS011;10644;48.834;10.088;2022-10-15T16:55:31;7.73;;;1.90;;
20970;SDS011;10644;48.834;10.088;2022-10-15T16:57:56;4.80;;;1.90;;
20970;SDS011;10644;48.834;10.088;2022-10-15T17:00:23;10.73;;;2.20;;
20970;SDS011;10644;48.834;10.088;2022-10-15T17:02:48;4.93;;;1.50;;
20970;SDS011;10644;48.834;10.088;2022-10-15T17:05:14;4.70;;;1.20;;
20970;SDS011;10644;48.834;10.088;2022-10-15T17:07:41;10.70;;;1.90;;
20970;SDS011;10644;48.834;10.088;2022-10-15T17:10:08;3.40;;;1.43;;
20970;SDS011;10644;48.834;10.088;2022-10-15T17:12:34;8.10;;;1.67;;
20970;SDS011;10644;48.834;10.088;2022-10-15T17:15:05;6.20;;;2.17;;
20970;SDS011;10644;48.834;10.088;2022-10-15T17:17:38;7.90;;;2.20;;
20970;SDS011;10644;48.834;10.088;2022-10-15T17:20:03;7.17;;;3.57;;
20970;SDS011;10644;48.834;10.088;2022-10-15T17:22:29;6.40;;;3.07;;
20970;SDS011;10644;48.834;10.088;2022-10-15T17:27:31;6.33;;;2.80;;
20970;SDS011;10644;48.834;10.088;2022-10-15T17:29:59;9.27;;;3.60;;
20970;SDS011;10644;48.834;10.088;2022-10-15T17:32:26;10.10;;;4.40;;
20970;SDS011;10644;48.834;10.088;2022-10-15T17:34:52;9.13;;;3.70;;
20970;SDS011;10644;48.834;10.088;2022-10-15T17:37:17;10.13;;;4.10;;
20970;SDS011;10644;48.834;10.088;2022-10-15T17:39:43;9.07;;;5.00;;
20970;SDS011;10644;48.834;10.088;2022-10-15T17:42:10;11.73;;;6.40;;
20970;SDS011;10644;48.834;10.088;2022-10-15T17:44:37;8.37;;;5.20;;
20970;SDS011;10644;48.834;10.088;2022-10-15T17:47:02;7.00;;;4.80;;
20970;SDS011;10644;48.834;10.088;2022-10-15T17:49:33;7.03;;;4.10;;
20970;SDS011;10644;48.834;10.088;2022-10-15T17:51:58;7.80;;;4.27;;
20970;SDS011;10644;48.834;10.088;2022-10-15T17:54:23;9.83;;;3.30;;
20970;SDS011;10644;48.834;10.088;2022-10-15T17:56:48;6.50;;;3.17;;
20970;SDS011;10644;48.834;10.088;2022-10-15T17:59:22;5.20;;;2.60;;
20970;SDS011;10644;48.834;10.088;2022-10-15T18:01:48;7.07;;;3.60;;
20970;SDS011;10644;48.834;10.088;2022-10-15T18:04:13;8.40;;;3.83;;
20970;SDS011;10644;48.834;10.088;2022-10-15T18:06:49;8.30;;;2.97;;
20970;SDS011;10644;48.834;10.088;2022-10-15T18:12:05;5.73;;;4.10;;
20970;SDS011;10644;48.834;10.088;2022-10-15T18:14:44;7.93;;;4.33;;
20970;SDS011;10644;48.834;10.088;2022-10-15T18:17:20;11.80;;;5.60;;
20970;SDS011;10644;48.834;10.088;2022-10-15T18:25:04;5.30;;;2.70;;
20970;SDS011;10644;48.834;10.088;2022-10-15T18:27:30;23.73;;;5.77;;
20970;SDS011;10644;48.834;10.088;2022-10-15T18:32:25;14.23;;;5.00;;
20970;SDS011;10644;48.834;10.088;2022-10-15T18:34:51;8.47;;;4.50;;
20970;SDS011;10644;48.834;10.088;2022-10-15T18:37:16;12.53;;;4.03;;
20970;SDS011;10644;48.834;10.088;2022-10-15T18:39:41;15.23;;;4.00;;
20970;SDS011;10644;48.834;10.088;2022-10-15T18:42:08;7.03;;;3.60;;
20970;SDS011;10644;48.834;10.088;2022-10-15T18:44:34;12.70;;;3.30;;
20970;SDS011;10644;48.834;10.088;2022-10-15T18:47:04;7.20;;;3.77;;
20970;SDS011;10644;48.834;10.088;2022-10-15T18:49:29;7.17;;;4.00;;
20970;SDS011;10644;48.834;10.088;2022-10-15T18:51:55;7.03;;;4.00;;
20970;SDS011;10644;48.834;10.088;2022-10-15T18:54:21;7.70;;;3.63;;
20970;SDS011;10644;48.834;10.088;2022-10-15T18:56:47;5.70;;;2.80;;
20970;SDS011;10644;48.834;10.088;2022-10-15T18:59:12;3.87;;;2.50;;
20970;SDS011;10644;48.834;10.088;2022-10-15T19:01:44;10.10;;;3.10;;
20970;SDS011;10644;48.834;10.088;2022-10-15T19:04:10;6.30;;;3.40;;
20970;SDS011;10644;48.834;10.088;2022-10-15T19:06:41;5.90;;;4.63;;
20970;SDS011;10644;48.834;10.088;2022-10-15T19:09:20;7.20;;;3.70;;
20970;SDS011;10644;48.834;10.088;2022-10-15T19:11:49;7.93;;;4.00;;
20970;SDS011;10644;48.834;10.088;2022-10-15T19:14:15;15.10;;;3.33;;
20970;SDS011;10644;48.834;10.088;2022-10-15T19:16:42;9.87;;;3.83;;
20970;SDS011;10644;48.834;10.088;2022-10-15T19:19:10;12.37;;;3.63;;
20970;SDS011;10644;48.834;10.088;2022-10-15T19:21:44;12.23;;;3.50;;
20970;SDS011;10644;48.834;10.088;2022-10-15T19:26:58;13.77;;;7.20;;
20970;SDS011;10644;48.834;10.088;2022-10-15T19:29:30;27.87;;;12.83;;
20970;SDS011;10644;48.834;10.088;2022-10-15T19:31:55;16.53;;;9.43;;
20970;SDS011;10644;48.834;10.088;2022-10-15T19:37:11;33.73;;;16.73;;
20970;SDS011;10644;48.834;10.088;2022-10-15T19:39:41;31.27;;;15.10;;
20970;SDS011;10644;48.834;10.088;2022-10-15T19:42:16;23.27;;;9.50;;
20970;SDS011;10644;48.834;10.088;2022-10-15T19:44:44;27.73;;;9.80;;
20970;SDS011;10644;48.834;10.088;2022-10-15T19:49:57;28.07;;;13.30;;
20970;SDS011;10644;48.834;10.088;2022-10-15T19:52:22;22.73;;;10.70;;
20970;SDS011;10644;48.834;10.088;2022-10-15T19:54:47;19.70;;;8.67;;
20970;SDS011;10644;48.834;10.088;2022-10-15T19:57:23;21.80;;;9.73;;
20970;SDS011;10644;48.834;10.088;2022-10-15T19:59:48;22.60;;;7.70;;
20970;SDS011;10644;48.834;10.088;2022-10-15T20:02:13;26.13;;;12.10;;
20970;SDS011;10644;48.834;10.088;2022-10-15T20:04:39;25.73;;;12.37;;
20970;SDS011;10644;48.834;10.088;2022-10-15T20:09:49;22.70;;;11.00;;
20970;SDS011;10644;48.834;10.088;2022-10-15T20:12:22;20.00;;;10.40;;
20970;SDS011;10644;48.834;10.088;2022-10-15T20:14:49;20.30;;;9.77;;
20970;SDS011;10644;48.834;10.088;2022-10-15T20:17:21;28.43;;;12.33;;
20970;SDS011;10644;48.834;10.088;2022-10-15T20:22:16;12.53;;;5.33;;